sensor_id;sensor_type;location;lat;lon;timestamp;P1;durP1;ratioP1;P2;durP2;ratioP2
49031;SDS011;63443;48.366;10.876;2023-04-25T00:01:59;3.17;;;2.88;;
49031;SDS011;63443;48.366;10.876;2023-04-25T00:04:24;4.10;;;3.40;;
49031;SDS011;63443;48.366;10.876;2023-04-25T00:06:50;3.35;;;3.10;;
49031;SDS011;63443;48.366;10.876;2023-04-25T00:09:17;4.10;;;3.00;;
49031;SDS011;63443;48.366;10.876;2023-04-25T00:11:42;6.20;;;3.72;;
49031;SDS011;63443;48.366;10.876;2023-04-25T00:14:08;4.53;;;3.78;;
49031;SDS011;63443;48.366;10.876;2023-04-25T00:16:34;5.30;;;3.42;;
49031;SDS011;63443;48.366;10.876;2023-04-25T00:19:03;6.60;;;3.97;;
49031;SDS011;63443;48.366;10.876;2023-04-25T00:21:29;5.78;;;3.80;;
49031;SDS011;63443;48.366;10.876;2023-04-25T00:23:56;4.53;;;3.70;;
49031;SDS011;63443;48.366;10.876;2023-04-25T00:26:22;3.50;;;3.20;;
49031;SDS011;63443;48.366;10.876;2023-04-25T00:28:47;4.43;;;3.63;;
49031;SDS011;63443;48.366;10.876;2023-04-25T00:31:13;5.22;;;3.55;;
49031;SDS011;63443;48.366;10.876;2023-04-25T00:33:39;5.38;;;3.90;;
49031;SDS011;63443;48.366;10.876;2023-04-25T00:36:05;4.15;;;3.75;;
49031;SDS011;63443;48.366;10.876;2023-04-25T00:38:31;4.07;;;3.67;;
49031;SDS011;63443;48.366;10.876;2023-04-25T00:40:56;3.90;;;3.50;;
49031;SDS011;63443;48.366;10.876;2023-04-25T00:43:23;4.38;;;3.70;;
49031;SDS011;63443;48.366;10.876;2023-04-25T00:45:52;4.72;;;3.40;;
49031;SDS011;63443;48.366;10.876;2023-04-25T00:48:20;4.63;;;3.60;;
49031;SDS011;63443;48.366;10.876;2023-04-25T00:50:51;3.63;;;3.33;;
49031;SDS011;63443;48.366;10.876;2023-04-25T00:53:20;4.20;;;3.80;;
49031;SDS011;63443;48.366;10.876;2023-04-25T00:55:46;3.60;;;3.30;;
49031;SDS011;63443;48.366;10.876;2023-04-25T00:58:12;3.88;;;3.42;;
49031;SDS011;63443;48.366;10.876;2023-04-25T01:00:39;4.75;;;3.65;;
49031;SDS011;63443;48.366;10.876;2023-04-25T01:03:05;3.90;;;3.60;;
49031;SDS011;63443;48.366;10.876;2023-04-25T01:05:31;5.27;;;3.40;;
49031;SDS011;63443;48.366;10.876;2023-04-25T01:07:57;4.53;;;3.40;;
49031;SDS011;63443;48.366;10.876;2023-04-25T01:10:23;3.75;;;3.28;;
49031;SDS011;63443;48.366;10.876;2023-04-25T01:12:49;3.73;;;3.37;;
49031;SDS011;63443;48.366;10.876;2023-04-25T01:15:14;4.03;;;3.67;;
49031;SDS011;63443;48.366;10.876;2023-04-25T01:17:40;4.70;;;3.40;;
49031;SDS011;63443;48.366;10.876;2023-04-25T01:20:07;3.35;;;3.03;;
49031;SDS011;63443;48.366;10.876;2023-04-25T01:22:34;4.45;;;3.70;;
49031;SDS011;63443;48.366;10.876;2023-04-25T01:25:00;5.63;;;3.50;;
49031;SDS011;63443;48.366;10.876;2023-04-25T01:27:27;5.03;;;3.55;;
49031;SDS011;63443;48.366;10.876;2023-04-25T01:29:53;5.32;;;3.95;;
49031;SDS011;63443;48.366;10.876;2023-04-25T01:32:21;5.03;;;3.72;;
49031;SDS011;63443;48.366;10.876;2023-04-25T01:34:47;3.97;;;3.50;;
49031;SDS011;63443;48.366;10.876;2023-04-25T01:37:13;7.10;;;4.30;;
49031;SDS011;63443;48.366;10.876;2023-04-25T01:39:38;4.20;;;3.80;;
49031;SDS011;63443;48.366;10.876;2023-04-25T01:42:04;3.45;;;3.15;;
49031;SDS011;63443;48.366;10.876;2023-04-25T03:31:17;3.35;;;3.00;;
49031;SDS011;63443;48.366;10.876;2023-04-25T03:33:43;4.45;;;3.78;;
49031;SDS011;63443;48.366;10.876;2023-04-25T03:36:09;5.30;;;3.88;;
49031;SDS011;63443;48.366;10.876;2023-04-25T03:38:34;5.07;;;3.60;;
49031;SDS011;63443;48.366;10.876;2023-04-25T03:41:00;4.30;;;3.30;;
49031;SDS011;63443;48.366;10.876;2023-04-25T03:43:26;5.88;;;3.25;;
49031;SDS011;63443;48.366;10.876;2023-04-25T03:45:52;4.10;;;3.70;;
49031;SDS011;63443;48.366;10.876;2023-04-25T03:48:17;3.72;;;2.80;;
49031;SDS011;63443;48.366;10.876;2023-04-25T03:50:44;8.43;;;3.65;;
49031;SDS011;63443;48.366;10.876;2023-04-25T03:53:09;4.47;;;3.35;;
49031;SDS011;63443;48.366;10.876;2023-04-25T03:55:35;2.47;;;2.38;;
49031;SDS011;63443;48.366;10.876;2023-04-25T03:58:00;4.55;;;2.60;;
49031;SDS011;63443;48.366;10.876;2023-04-25T04:00:26;2.95;;;2.65;;
49031;SDS011;63443;48.366;10.876;2023-04-25T04:02:52;4.93;;;3.13;;
49031;SDS011;63443;48.366;10.876;2023-04-25T04:05:17;2.65;;;2.35;;
49031;SDS011;63443;48.366;10.876;2023-04-25T10:45:56;1.58;;;1.08;;
49031;SDS011;63443;48.366;10.876;2023-04-25T10:48:30;1.00;;;0.85;;
49031;SDS011;63443;48.366;10.876;2023-04-25T10:51:09;1.25;;;0.90;;
49031;SDS011;63443;48.366;10.876;2023-04-25T10:53:35;1.42;;;1.00;;
49031;SDS011;63443;48.366;10.876;2023-04-25T10:56:11;0.98;;;0.93;;
49031;SDS011;63443;48.366;10.876;2023-04-25T10:58:47;6.43;;;1.15;;
49031;SDS011;63443;48.366;10.876;2023-04-25T11:01:13;2.05;;;1.00;;
49031;SDS011;63443;48.366;10.876;2023-04-25T11:03:46;1.83;;;1.30;;
49031;SDS011;63443;48.366;10.876;2023-04-25T11:06:20;1.25;;;1.20;;
49031;SDS011;63443;48.366;10.876;2023-04-25T11:08:52;3.22;;;1.23;;
49031;SDS011;63443;48.366;10.876;2023-04-25T11:11:18;1.42;;;1.33;;
49031;SDS011;63443;48.366;10.876;2023-04-25T11:13:44;1.73;;;1.63;;
49031;SDS011;63443;48.366;10.876;2023-04-25T11:16:13;3.35;;;1.77;;
49031;SDS011;63443;48.366;10.876;2023-04-25T11:18:40;2.38;;;1.70;;
49031;SDS011;63443;48.366;10.876;2023-04-25T11:21:06;4.13;;;2.08;;
49031;SDS011;63443;48.366;10.876;2023-04-25T11:23:32;2.58;;;1.90;;
49031;SDS011;63443;48.366;10.876;2023-04-25T11:25:57;2.78;;;1.50;;
49031;SDS011;63443;48.366;10.876;2023-04-25T11:28:25;3.35;;;1.73;;
49031;SDS011;63443;48.366;10.876;2023-04-25T11:30:51;3.50;;;1.70;;
49031;SDS011;63443;48.366;10.876;2023-04-25T11:33:17;2.33;;;1.55;;
49031;SDS011;63443;48.366;10.876;2023-04-25T11:35:43;3.78;;;1.70;;
49031;SDS011;63443;48.366;10.876;2023-04-25T11:38:08;1.35;;;1.25;;
49031;SDS011;63443;48.366;10.876;2023-04-25T11:40:35;2.92;;;2.53;;
